Main page
METAR-TAF:

METAR-TAF

Airports :

Tabuk Regional Airport

Tabuk, Saudi Arabia

latitude: 28-22N, longitude: 036-36E, elevation: 778 m

Current weather observation

The report was made 46 minutes ago, at 19:00 UTC
Wind 9 kt from the North/Northwest
Temperature 30°C
Humidity 25%
Pressure 1010 hPa
Visibility 10 km or more
no clouds below 1500 m and no cumulonimbus

METAR: OETB 161900Z 33009KT CAVOK 30/08 Q1010 NOSIG

Time: 22:46 (19:46 UTC)

Forecast

The report was made 8 hours and 46 minutes ago, at 11:00 UTC
Forecast valid from 16 at 12 UTC to 17 at 18 UTC
Wind 14 kt from the North/Northwest
Visibility 10 km or more
no clouds below 1500 m and no cumulonimbus
Becoming
from 16 at 20 UTC to 16 at 22 UTC
Wind 10 kt from the North/Northwest

TAF: OETB 161100Z 1612/1718 33014KT CAVOK BECMG 1620/1622 34010KT

Weather observations and forecasts of more than 4000 airports (METAR and TAF reports).

The available stations are represented by yellow and red dots on the map.

Hover mouse over dot to see the name of the station.

Then click to see weather observations and forecasts.

To change the map : click on the green buttons with a black cross to zoom in, on the green button with a dash to zoom out, or on the green arrows for adjacent maps.


METAR-TAF: